Time;durP1;ratioP1;P1;durP2;ratioP2;P2;SDS_P1;SDS_P2;PMS_P1;PMS_P2;Temp;Humidity;BMP_temperature;BMP_pressure;BME280_temperature;BME280_humidity;BME280_pressure;Samples;Min_cycle;Max_cycle;Signal;HPM_P1;HPM_P2
2023/08/17 00:01:16;;;;;;;4.03;3.63;;;17.70;99.90;;;;;;5094666;28;20078;-80
2023/08/17 00:03:46;;;;;;;0.10;0.10;;;17.70;99.90;;;;;;5093854;28;20030;-76
2023/08/17 00:06:31;;;;;;;0.35;0.35;;;17.70;99.90;;;;;;5094646;28;20024;-80
2023/08/17 00:09:12;;;;;;;0.55;0.55;;;17.70;99.90;;;;;;5095135;28;20320;-76
2023/08/17 00:11:48;;;;;;;0.73;0.73;;;17.60;99.90;;;;;;5094036;28;20111;-76
2023/08/17 00:14:52;;;;;;;0.93;0.93;;;17.70;99.90;;;;;;5093989;28;20012;-77
2023/08/17 00:18:09;;;;;;;0.28;0.28;;;17.80;99.90;;;;;;5074525;28;20353;-81
2023/08/17 00:20:52;;;;;;;0.13;0.13;;;17.70;99.90;;;;;;5093105;28;20030;-77
2023/08/17 00:24:07;;;;;;;0.20;0.20;;;17.50;99.90;;;;;;5093993;28;20293;-79
2023/08/17 00:26:51;;;;;;;0.82;0.82;;;17.50;99.90;;;;;;5073529;28;20089;-76
2023/08/17 00:29:19;;;;;;;1.77;1.67;;;17.80;99.90;;;;;;5091247;28;20036;-76
2023/08/17 00:31:52;;;;;;;0.10;0.10;;;17.40;99.90;;;;;;5093351;28;20143;-79
2023/08/17 00:34:19;;;;;;;0.98;0.80;;;17.70;99.90;;;;;;5072956;28;20028;-77
2023/08/17 00:36:53;;;;;;;2.05;1.95;;;17.50;99.90;;;;;;5092371;28;20024;-77
2023/08/17 00:39:58;;;;;;;0.70;0.68;;;17.50;99.90;;;;;;5094169;28;20133;-76
2023/08/17 00:42:29;;;;;;;0.82;0.82;;;17.40;99.90;;;;;;5070522;28;20054;-77
2023/08/17 00:44:56;;;;;;;0.28;0.28;;;17.40;99.90;;;;;;5092423;28;20020;-76
2023/08/17 00:47:30;;;;;;;0.20;0.20;;;17.30;99.90;;;;;;5092313;28;20044;-77
2023/08/17 00:50:03;;;;;;;0.10;0.10;;;17.30;99.90;;;;;;5073134;28;20040;-78
2023/08/17 00:52:35;;;;;;;0.35;0.35;;;17.00;99.90;;;;;;5072907;28;20557;-76
2023/08/17 00:55:05;;;;;;;0.70;0.65;;;17.10;99.90;;;;;;5089719;28;20048;-80
2023/08/17 00:57:36;;;;;;;3.03;2.38;;;17.10;99.90;;;;;;5092547;28;20031;-76
2023/08/17 01:00:28;;;;;;;1.13;1.13;;;17.00;99.90;;;;;;5090812;28;20107;-76
2023/08/17 01:02:56;;;;;;;0.20;0.20;;;17.00;99.90;;;;;;4986075;28;20101;-76
2023/08/17 01:05:23;;;;;;;0.40;0.40;;;;;;;;;;5007010;28;20552;-77
2023/08/17 01:07:59;;;;;;;1.67;1.60;;;17.00;99.90;;;;;;4989359;28;20205;-76
2023/08/17 01:10:39;;;;;;;0.30;0.30;;;17.00;99.90;;;;;;5005250;28;20030;-79
2023/08/17 01:13:18;;;;;;;0.20;0.20;;;17.00;99.90;;;;;;5004822;28;20025;-79
2023/08/17 01:15:55;;;;;;;0.10;0.10;;;17.20;99.90;;;;;;5006037;28;20054;-76
2023/08/17 01:18:31;;;;;;;0.73;0.73;;;17.10;99.90;;;;;;4986905;28;20014;-77
2023/08/17 01:20:58;;;;;;;0.98;0.85;;;17.10;99.90;;;;;;5004775;28;20140;-76
2023/08/17 01:23:24;;;;;;;0.20;0.20;;;17.00;99.90;;;;;;5008443;28;20253;-79
2023/08/17 01:25:53;;;;;;;0.80;0.80;;;17.10;99.90;;;;;;5007692;28;20041;-79
2023/08/17 01:28:20;;;;;;;0.40;0.40;;;17.10;99.90;;;;;;4990736;28;20034;-76
2023/08/17 01:31:15;;;;;;;1.38;1.27;;;17.20;99.90;;;;;;5008706;28;20065;-77
2023/08/17 01:33:52;;;;;;;0.10;0.10;;;17.20;99.90;;;;;;4991015;28;20045;-76
2023/08/17 01:36:43;;;;;;;0.20;0.20;;;17.30;99.90;;;;;;5008464;28;20034;-76
2023/08/17 01:39:10;;;;;;;2.25;2.05;;;17.60;99.90;;;;;;4986633;28;20050;-82
2023/08/17 01:41:39;;;;;;;1.05;1.05;;;17.60;99.90;;;;;;5041955;28;20427;-77
2023/08/17 01:44:06;;;;;;;0.63;0.63;;;17.80;99.90;;;;;;5041622;28;20494;-77
2023/08/17 01:46:34;;;;;;;1.23;1.17;;;17.70;99.90;;;;;;5039370;28;20033;-75
2023/08/17 01:49:00;;;;;;;0.10;0.10;;;17.60;99.90;;;;;;5042891;28;20593;-77
2023/08/17 01:51:26;;;;;;;0.30;0.30;;;17.70;99.90;;;;;;5041315;28;20051;-79
2023/08/17 01:53:52;;;;;;;0.35;0.35;;;17.40;99.90;;;;;;5042474;28;20022;-76
2023/08/17 01:56:19;;;;;;;0.10;0.10;;;17.30;99.90;;;;;;5041428;28;20032;-80
2023/08/17 01:58:44;;;;;;;1.13;1.05;;;17.20;99.90;;;;;;5040035;28;20021;-76
2023/08/17 02:01:10;;;;;;;0.35;0.35;;;17.60;99.90;;;;;;5056211;28;20472;-76
2023/08/17 02:03:36;;;;;;;1.00;0.95;;;17.40;99.90;;;;;;5081477;28;20115;-78
2023/08/17 02:06:03;;;;;;;0.47;0.47;;;;;;;;;;5082569;28;20560;-76
2023/08/17 02:08:30;;;;;;;1.27;1.27;;;17.20;99.90;;;;;;5082471;28;20024;-78
2023/08/17 02:10:56;;;;;;;0.20;0.20;;;17.60;99.90;;;;;;5064251;28;20396;-86
2023/08/17 02:13:22;;;;;;;1.10;1.00;;;16.80;99.90;;;;;;5067376;28;20047;-87
2023/08/17 02:15:48;;;;;;;2.45;2.25;;;16.80;99.90;;;;;;5081126;28;20416;-81
2023/08/17 02:18:14;;;;;;;0.35;0.35;;;16.70;99.90;;;;;;5082110;28;20074;-86
2023/08/17 02:20:40;;;;;;;0.55;0.55;;;16.90;99.90;;;;;;5063742;28;20417;-76
2023/08/17 02:23:07;;;;;;;0.17;0.17;;;16.70;99.90;;;;;;5082360;28;20224;-76
2023/08/17 02:25:35;;;;;;;0.50;0.50;;;16.80;99.90;;;;;;5082412;28;20020;-76
2023/08/17 02:28:03;;;;;;;0.40;0.40;;;16.80;99.90;;;;;;5082315;28;20213;-76
2023/08/17 02:30:29;;;;;;;0.40;0.40;;;17.50;99.90;;;;;;5064483;28;20614;-78
2023/08/17 02:32:55;;;;;;;0.82;0.82;;;16.90;99.90;;;;;;5082360;28;20024;-75
2023/08/17 02:35:24;;;;;;;1.55;1.45;;;16.90;99.90;;;;;;5066665;28;20161;-76
2023/08/17 02:37:50;;;;;;;0.50;0.50;;;18.10;99.90;;;;;;5065336;28;20521;-75
2023/08/17 02:40:17;;;;;;;0.35;0.35;;;15.10;99.90;;;;;;5082560;28;20032;-76
2023/08/17 02:42:44;;;;;;;0.10;0.10;;;16.60;99.90;;;;;;5082235;28;20017;-77
2023/08/17 02:45:10;;;;;;;1.48;1.38;;;16.50;99.90;;;;;;5082441;28;20020;-75
2023/08/17 02:47:37;;;;;;;0.20;0.20;;;16.20;99.90;;;;;;5063255;28;20569;-79
2023/08/17 02:50:04;;;;;;;1.23;1.17;;;16.50;99.90;;;;;;5081695;28;20024;-76
2023/08/17 02:52:30;;;;;;;0.55;0.55;;;16.30;99.90;;;;;;5063440;28;20034;-76
2023/08/17 02:54:56;;;;;;;0.25;0.25;;;16.20;99.90;;;;;;5063921;28;20733;-79
2023/08/17 02:57:23;;;;;;;0.50;0.50;;;16.30;99.90;;;;;;5063727;28;20024;-77
2023/08/17 02:59:49;;;;;;;1.15;1.08;;;16.20;99.90;;;;;;5081559;28;20028;-77
2023/08/17 03:02:15;;;;;;;0.30;0.30;;;16.20;99.90;;;;;;5063907;28;20121;-76
2023/08/17 03:04:42;;;;;;;0.47;0.47;;;16.20;99.90;;;;;;5064000;28;20320;-76
2023/08/17 03:07:08;;;;;;;0.75;0.75;;;;;;;;;;5082720;28;20152;-76
2023/08/17 03:09:35;;;;;;;0.95;0.95;;;16.20;99.90;;;;;;5082304;28;20047;-75
2023/08/17 03:12:02;;;;;;;0.10;0.10;;;16.30;99.90;;;;;;5081889;28;20382;-75
2023/08/17 03:14:28;;;;;;;0.17;0.17;;;16.30;99.90;;;;;;5082002;28;20212;-75
2023/08/17 03:16:54;;;;;;;0.17;0.17;;;16.70;99.90;;;;;;5082107;28;20024;-77
2023/08/17 03:19:22;;;;;;;1.50;1.40;;;16.80;99.90;;;;;;5084138;28;20035;-77
2023/08/17 03:21:48;;;;;;;0.30;0.30;;;17.00;99.90;;;;;;5066576;28;20040;-77
2023/08/17 03:24:15;;;;;;;0.55;0.55;;;16.70;99.90;;;;;;5084985;28;20099;-79
2023/08/17 03:26:41;;;;;;;0.20;0.20;;;17.40;99.90;;;;;;5063441;28;20420;-76
2023/08/17 03:29:08;;;;;;;0.20;0.20;;;;;;;;;;5080567;28;20044;-77
2023/08/17 03:31:35;;;;;;;0.20;0.20;;;17.60;99.90;;;;;;5062639;28;20108;-80
2023/08/17 03:34:01;;;;;;;0.13;0.13;;;17.60;99.90;;;;;;5064528;28;20062;-77
2023/08/17 03:36:27;;;;;;;0.20;0.20;;;17.70;99.90;;;;;;5081656;28;20301;-78
2023/08/17 03:38:53;;;;;;;2.20;2.10;;;18.00;99.90;;;;;;5063000;28;20469;-77
2023/08/17 03:41:25;;;;;;;0.15;0.15;;;17.90;99.90;;;;;;5081325;28;20263;-77
2023/08/17 03:43:52;;;;;;;0.10;0.10;;;17.90;99.90;;;;;;5063241;28;20020;-77
2023/08/17 03:46:18;;;;;;;1.05;1.05;;;16.90;99.90;;;;;;5081992;28;20026;-76
2023/08/17 03:48:45;;;;;;;0.10;0.10;;;17.80;99.90;;;;;;5066642;28;20125;-77
2023/08/17 03:51:11;;;;;;;0.35;0.35;;;17.60;99.90;;;;;;5081995;28;20031;-77
2023/08/17 03:53:37;;;;;;;1.60;1.35;;;17.40;99.90;;;;;;5079691;28;20205;-78
2023/08/17 03:56:04;;;;;;;0.20;0.20;;;17.50;99.90;;;;;;5080080;28;20020;-77
2023/08/17 03:58:34;;;;;;;2.60;2.38;;;17.30;99.90;;;;;;5080381;28;20020;-78
2023/08/17 04:01:00;;;;;;;0.20;0.20;;;17.20;99.90;;;;;;5081631;28;20040;-78
2023/08/17 04:03:26;;;;;;;0.25;0.25;;;17.10;99.90;;;;;;5079827;28;20028;-82
2023/08/17 04:05:52;;;;;;;4.57;4.13;;;17.00;99.90;;;;;;5061951;28;20340;-76
2023/08/17 04:08:18;;;;;;;4.18;3.85;;;17.20;99.90;;;;;;5080353;28;20020;-80
2023/08/17 04:10:45;;;;;;;0.20;0.20;;;;;;;;;;5081714;28;20028;-77
2023/08/17 04:13:11;;;;;;;1.63;1.52;;;17.50;99.90;;;;;;5062311;28;20430;-77
2023/08/17 04:15:37;;;;;;;0.25;0.25;;;17.40;99.90;;;;;;5080278;28;20028;-77
2023/08/17 04:18:04;;;;;;;1.20;1.10;;;17.50;99.90;;;;;;5081376;28;20077;-77
2023/08/17 04:20:30;;;;;;;0.20;0.20;;;17.50;99.90;;;;;;5080215;28;20091;-77
2023/08/17 04:22:55;;;;;;;0.43;0.43;;;17.70;99.90;;;;;;5062185;28;20816;-77
2023/08/17 04:25:22;;;;;;;0.70;0.70;;;17.70;99.90;;;;;;5061863;28;20080;-77
2023/08/17 04:27:48;;;;;;;2.63;1.48;;;17.70;99.90;;;;;;5080994;28;20028;-79
2023/08/17 04:30:14;;;;;;;0.90;0.85;;;17.60;99.90;;;;;;5080796;28;20052;-76
2023/08/17 04:32:40;;;;;;;0.95;0.95;;;18.30;99.90;;;;;;5062144;28;20257;-76
2023/08/17 04:35:07;;;;;;;0.10;0.10;;;;;;;;;;5083182;28;20028;-77
2023/08/17 04:37:33;;;;;;;1.98;1.88;;;;;;;;;;5064468;28;20031;-78
2023/08/17 04:40:00;;;;;;;0.45;0.45;;;17.30;99.90;;;;;;5083931;28;20020;-76
2023/08/17 04:42:27;;;;;;;1.75;1.65;;;17.50;99.90;;;;;;5083669;28;20128;-77
2023/08/17 04:44:53;;;;;;;0.20;0.20;;;17.50;99.90;;;;;;5066754;28;20059;-76
2023/08/17 04:47:19;;;;;;;0.10;0.10;;;17.70;99.90;;;;;;5083808;28;20417;-77
2023/08/17 04:49:46;;;;;;;2.13;1.02;;;17.50;99.90;;;;;;5084539;28;20359;-77
2023/08/17 04:52:12;;;;;;;0.93;0.93;;;17.40;99.90;;;;;;5084690;28;20524;-77
2023/08/17 04:54:38;;;;;;;3.80;3.58;;;17.40;99.90;;;;;;5066011;28;20024;-78
2023/08/17 04:57:05;;;;;;;0.22;0.22;;;15.70;99.90;;;;;;5084193;28;20032;-81
2023/08/17 04:59:31;;;;;;;0.10;0.10;;;14.10;99.90;;;;;;5066742;28;20016;-78
2023/08/17 05:01:58;;;;;;;0.43;0.43;;;17.40;99.90;;;;;;5065926;28;20123;-77
2023/08/17 05:04:24;;;;;;;0.20;0.20;;;17.40;99.90;;;;;;5065060;28;20719;-77
2023/08/17 05:06:51;;;;;;;0.55;0.55;;;15.90;99.90;;;;;;5082146;28;20032;-78
2023/08/17 05:09:17;;;;;;;0.20;0.20;;;17.70;99.90;;;;;;5083140;28;20080;-77
2023/08/17 05:11:43;;;;;;;0.20;0.20;;;16.70;99.90;;;;;;5084353;28;20681;-76
2023/08/17 05:14:09;;;;;;;0.50;0.50;;;17.80;99.90;;;;;;5083995;28;20016;-77
2023/08/17 05:16:36;;;;;;;1.75;1.65;;;17.80;99.90;;;;;;5085033;28;20164;-76
2023/08/17 05:19:02;;;;;;;0.30;0.30;;;17.70;99.90;;;;;;5085252;28;20016;-77
2023/08/17 05:21:29;;;;;;;1.02;1.02;;;17.70;99.90;;;;;;5082931;28;20020;-76
2023/08/17 05:23:56;;;;;;;0.10;0.10;;;18.10;99.90;;;;;;5064483;28;20619;-83
2023/08/17 05:26:23;;;;;;;1.08;1.05;;;18.10;99.90;;;;;;5082145;28;20026;-78
2023/08/17 05:28:49;;;;;;;0.52;0.52;;;18.20;99.90;;;;;;5082392;28;20051;-79
2023/08/17 05:31:15;;;;;;;0.30;0.30;;;17.90;99.90;;;;;;5081846;28;20079;-77
2023/08/17 05:33:41;;;;;;;0.60;0.60;;;18.30;99.90;;;;;;5084040;28;20020;-77
2023/08/17 05:36:08;;;;;;;0.40;0.40;;;18.10;99.90;;;;;;5066162;28;20332;-76
2023/08/17 05:38:34;;;;;;;1.38;1.27;;;18.30;99.90;;;;;;5082422;28;20032;-79
2023/08/17 05:41:01;;;;;;;2.05;1.65;;;18.60;99.90;;;;;;5064842;28;20305;-77
2023/08/17 05:43:27;;;;;;;0.98;0.95;;;18.60;99.90;;;;;;5081559;28;20031;-77
2023/08/17 05:45:54;;;;;;;0.65;0.65;;;18.80;99.90;;;;;;5063944;28;20020;-79
2023/08/17 05:48:23;;;;;;;0.20;0.20;;;19.10;99.90;;;;;;5063762;28;20108;-77
2023/08/17 05:50:49;;;;;;;0.70;0.70;;;19.50;99.90;;;;;;5081857;28;20039;-78
2023/08/17 05:53:18;;;;;;;0.57;0.57;;;19.70;99.90;;;;;;5080254;28;20020;-77
2023/08/17 05:55:51;;;;;;;0.47;0.47;;;22.40;99.90;;;;;;5080405;28;20099;-79
2023/08/17 05:58:34;;;;;;;0.10;0.10;;;20.50;99.90;;;;;;5079593;28;20028;-77
2023/08/17 06:01:07;;;;;;;0.10;0.10;;;19.30;99.90;;;;;;5080969;28;20044;-77
2023/08/17 06:03:35;;;;;;;0.35;0.35;;;17.90;99.90;;;;;;5063690;28;20043;-76
2023/08/17 06:06:01;;;;;;;0.20;0.20;;;21.10;99.90;;;;;;5082166;28;20393;-88
2023/08/17 06:08:28;;;;;;;1.77;1.67;;;20.50;99.90;;;;;;5080808;28;20550;-82
2023/08/17 06:10:54;;;;;;;0.17;0.17;;;19.50;99.90;;;;;;5082149;28;20129;-82
2023/08/17 06:13:19;;;;;;;0.88;0.88;;;20.60;99.90;;;;;;5082791;28;20024;-85
2023/08/17 06:15:45;;;;;;;0.85;0.52;;;20.80;99.90;;;;;;5081974;28;20612;-76
2023/08/17 06:18:11;;;;;;;0.40;0.40;;;21.00;99.90;;;;;;5082848;28;20220;-84
2023/08/17 06:20:37;;;;;;;0.20;0.20;;;21.10;99.90;;;;;;5063624;28;20466;-83
2023/08/17 06:23:03;;;;;;;0.20;0.20;;;21.60;99.90;;;;;;5078768;28;20024;-77
2023/08/17 06:25:29;;;;;;;0.60;0.60;;;21.20;99.90;;;;;;5080825;28;20067;-77
2023/08/17 06:27:55;;;;;;;0.63;0.63;;;21.30;99.90;;;;;;5081153;28;20030;-77
2023/08/17 06:30:21;;;;;;;0.20;0.20;;;21.20;99.90;;;;;;5063584;28;20143;-76
2023/08/17 06:32:48;;;;;;;2.53;1.60;;;21.10;99.90;;;;;;5082534;28;20533;-76
2023/08/17 06:35:15;;;;;;;5.75;5.47;;;24.50;99.90;;;;;;5081513;28;20032;-78
2023/08/17 06:37:41;;;;;;;0.25;0.25;;;21.00;99.90;;;;;;5080605;28;20024;-76
2023/08/17 06:40:09;;;;;;;0.45;0.45;;;21.20;99.90;;;;;;5079791;28;20103;-76
2023/08/17 06:42:35;;;;;;;0.80;0.80;;;21.50;99.90;;;;;;5080414;28;20020;-78
2023/08/17 06:45:05;;;;;;;0.10;0.10;;;21.40;99.90;;;;;;5064902;28;20329;-77
2023/08/17 06:47:33;;;;;;;0.45;0.45;;;21.50;99.90;;;;;;5084315;28;20016;-80
2023/08/17 06:50:00;;;;;;;0.20;0.20;;;21.70;99.90;;;;;;5066301;28;20032;-77
2023/08/17 06:52:27;;;;;;;1.50;1.40;;;21.60;99.90;;;;;;5067803;28;20074;-76
2023/08/17 06:54:56;;;;;;;1.38;1.27;;;20.40;99.90;;;;;;5066964;28;20017;-77
2023/08/17 06:57:22;;;;;;;0.20;0.20;;;21.70;99.90;;;;;;5085051;28;20016;-78
2023/08/17 06:59:48;;;;;;;0.65;0.65;;;21.70;99.90;;;;;;5078613;28;20039;-77
2023/08/17 07:02:14;;;;;;;1.20;1.10;;;21.70;99.90;;;;;;5078078;28;20129;-82
2023/08/17 07:04:40;;;;;;;0.25;0.25;;;21.70;99.90;;;;;;5078547;28;20154;-84
2023/08/17 07:07:05;;;;;;;0.52;0.52;;;21.80;99.90;;;;;;5079366;28;20032;-81
2023/08/17 07:09:31;;;;;;;0.70;0.70;;;21.80;99.90;;;;;;5082049;28;20085;-76
2023/08/17 07:11:57;;;;;;;0.20;0.20;;;21.70;99.90;;;;;;5078530;28;20058;-77
2023/08/17 07:14:23;;;;;;;0.30;0.28;;;21.70;99.90;;;;;;5077753;28;20020;-79
2023/08/17 07:16:49;;;;;;;0.25;0.25;;;21.70;99.90;;;;;;5080723;28;20020;-78
2023/08/17 07:19:15;;;;;;;0.52;0.52;;;21.80;99.90;;;;;;5078473;28;20069;-84
2023/08/17 07:21:40;;;;;;;0.20;0.20;;;21.80;99.90;;;;;;5078827;28;20032;-78
2023/08/17 07:24:13;;;;;;;0.80;0.63;;;21.80;99.90;;;;;;5079284;28;20028;-84
2023/08/17 07:26:39;;;;;;;0.68;0.68;;;21.60;99.90;;;;;;5061084;28;20020;-81
2023/08/17 07:29:05;;;;;;;0.88;0.88;;;21.50;99.90;;;;;;5078861;28;20487;-78
2023/08/17 07:31:37;;;;;;;1.02;1.02;;;21.60;99.90;;;;;;5081072;28;20673;-76
2023/08/17 07:34:06;;;;;;;1.45;1.35;;;21.40;99.90;;;;;;5080672;28;20016;-77
2023/08/17 07:36:34;;;;;;;0.68;0.65;;;21.10;99.90;;;;;;5061383;28;20610;-77
2023/08/17 07:39:00;;;;;;;0.85;0.85;;;21.40;99.90;;;;;;5080439;28;20093;-77
2023/08/17 07:41:27;;;;;;;0.73;0.73;;;21.40;99.90;;;;;;5082447;28;20107;-76
2023/08/17 07:43:54;;;;;;;0.73;0.73;;;21.50;99.90;;;;;;5080203;28;20131;-77
2023/08/17 07:46:20;;;;;;;1.77;0.93;;;21.50;99.90;;;;;;5062288;28;20016;-77
2023/08/17 07:48:46;;;;;;;0.50;0.50;;;23.10;99.90;;;;;;5062943;28;20093;-77
2023/08/17 07:51:11;;;;;;;2.40;2.20;;;21.60;99.90;;;;;;5079864;28;20669;-85
2023/08/17 07:53:42;;;;;;;1.55;1.45;;;21.60;99.90;;;;;;5080011;28;20034;-78
2023/08/17 07:56:08;;;;;;;0.70;0.70;;;20.80;99.90;;;;;;5061861;28;20043;-76
2023/08/17 07:58:34;;;;;;;1.05;1.05;;;22.20;99.90;;;;;;5080680;28;20569;-77
2023/08/17 08:01:01;;;;;;;4.40;1.65;;;21.70;99.90;;;;;;5082292;28;20422;-78
2023/08/17 08:03:27;;;;;;;0.20;0.20;;;24.10;99.90;;;;;;5080359;28;20028;-78
2023/08/17 08:05:53;;;;;;;0.38;0.38;;;21.80;99.90;;;;;;5080751;28;20070;-77
2023/08/17 08:08:20;;;;;;;1.08;1.08;;;21.80;99.90;;;;;;5079581;28;20038;-81
2023/08/17 08:10:46;;;;;;;1.27;1.17;;;21.80;99.90;;;;;;5061433;28;20082;-76
2023/08/17 08:13:12;;;;;;;1.33;1.23;;;22.20;99.90;;;;;;5078565;28;20202;-80
2023/08/17 08:15:38;;;;;;;0.20;0.20;;;22.10;99.90;;;;;;5080168;28;20331;-77
2023/08/17 08:18:04;;;;;;;1.80;1.70;;;22.20;99.90;;;;;;5085231;28;20047;-77
2023/08/17 08:20:32;;;;;;;0.35;0.35;;;22.30;99.90;;;;;;5067013;28;20028;-80
2023/08/17 08:22:59;;;;;;;1.05;0.82;;;22.50;99.90;;;;;;5065489;28;20023;-77
2023/08/17 08:25:25;;;;;;;0.25;0.25;;;22.40;99.90;;;;;;5065691;28;20035;-78
2023/08/17 08:27:52;;;;;;;1.17;0.65;;;21.40;99.90;;;;;;5086593;28;20020;-80
2023/08/17 08:30:19;;;;;;;0.77;0.77;;;22.60;99.90;;;;;;5067421;28;20031;-78
2023/08/17 08:32:46;;;;;;;1.75;1.15;;;22.40;99.90;;;;;;5067044;28;20020;-78
2023/08/17 08:35:12;;;;;;;0.20;0.20;;;22.60;99.90;;;;;;5085337;28;20089;-77
2023/08/17 08:37:38;;;;;;;1.42;1.33;;;;;;;;;;5066383;28;20024;-77
2023/08/17 08:40:10;;;;;;;0.73;0.73;;;22.60;99.90;;;;;;5084844;28;20124;-79
2023/08/17 08:42:36;;;;;;;0.45;0.45;;;22.60;99.90;;;;;;5065776;28;20589;-77
2023/08/17 08:45:03;;;;;;;4.75;0.80;;;22.70;99.90;;;;;;5084128;28;20078;-76
2023/08/17 08:47:32;;;;;;;0.82;0.82;;;22.90;99.90;;;;;;5083545;28;20016;-77
2023/08/17 08:50:03;;;;;;;3.45;2.97;;;22.90;99.90;;;;;;5065628;28;20329;-80
2023/08/17 08:52:42;;;;;;;0.10;0.10;;;22.90;99.90;;;;;;5085979;28;20028;-80
2023/08/17 08:55:14;;;;;;;0.80;0.80;;;23.00;99.90;;;;;;5065779;28;20050;-77
2023/08/17 08:57:42;;;;;;;1.23;1.17;;;22.80;99.90;;;;;;5065167;28;20031;-77
2023/08/17 09:00:09;;;;;;;0.57;0.57;;;23.00;99.90;;;;;;5064688;28;20088;-80
2023/08/17 09:02:35;;;;;;;0.68;0.68;;;22.20;99.90;;;;;;5082373;28;20071;-76
2023/08/17 09:05:02;;;;;;;1.25;1.25;;;23.10;99.90;;;;;;5082270;28;20347;-76
2023/08/17 09:07:32;;;;;;;4.45;1.25;;;23.30;99.90;;;;;;5083696;28;20073;-76
2023/08/17 09:09:59;;;;;;;0.10;0.10;;;23.90;99.90;;;;;;5082812;28;20021;-76
2023/08/17 09:12:25;;;;;;;0.93;0.93;;;22.70;99.90;;;;;;5063634;28;20023;-77
2023/08/17 09:14:52;;;;;;;3.33;2.05;;;23.80;99.90;;;;;;5063832;28;20080;-78
2023/08/17 09:17:28;;;;;;;1.38;1.27;;;23.90;99.90;;;;;;5082296;28;20020;-77
2023/08/17 09:19:57;;;;;;;1.77;1.65;;;23.90;99.90;;;;;;5085002;28;20020;-78
2023/08/17 09:22:47;;;;;;;2.63;1.63;;;23.70;99.90;;;;;;5083072;28;20016;-81
2023/08/17 09:25:23;;;;;;;0.85;0.82;;;24.00;99.90;;;;;;5081499;28;20043;-80
2023/08/17 09:27:50;;;;;;;1.35;1.25;;;24.30;99.90;;;;;;5063443;28;20157;-80
2023/08/17 09:30:16;;;;;;;0.40;0.40;;;24.10;99.90;;;;;;5084747;28;20063;-76
2023/08/17 09:32:43;;;;;;;0.15;0.15;;;24.70;99.90;;;;;;5083983;28;20678;-78
2023/08/17 09:35:09;;;;;;;1.92;1.15;;;24.30;99.90;;;;;;5083848;28;20107;-77
2023/08/17 09:37:35;;;;;;;7.35;2.65;;;24.30;99.90;;;;;;5081971;28;20020;-75
2023/08/17 09:40:02;;;;;;;0.10;0.10;;;25.00;99.90;;;;;;5080971;28;20031;-78
2023/08/17 09:42:28;;;;;;;3.40;1.58;;;24.60;99.90;;;;;;5071273;28;20088;-76
2023/08/17 09:44:55;;;;;;;1.20;1.10;;;24.50;99.90;;;;;;5061745;28;20024;-77
2023/08/17 09:47:23;;;;;;;0.52;0.50;;;24.70;99.90;;;;;;5062244;28;20490;-77
2023/08/17 09:49:54;;;;;;;2.30;1.27;;;24.70;99.90;;;;;;5043856;28;20028;-77
2023/08/17 09:52:21;;;;;;;3.25;1.13;;;24.20;99.90;;;;;;5060725;28;20052;-76
2023/08/17 09:54:48;;;;;;;1.08;0.82;;;24.80;99.90;;;;;;5061819;28;20031;-77
2023/08/17 09:57:14;;;;;;;3.47;1.80;;;25.30;99.90;;;;;;5060429;28;20085;-84
2023/08/17 09:59:40;;;;;;;0.57;0.50;;;25.20;99.90;;;;;;5060599;28;20017;-78
2023/08/17 10:02:19;;;;;;;0.93;0.93;;;25.30;99.90;;;;;;5043555;28;20127;-83
2023/08/17 10:04:51;;;;;;;0.77;0.77;;;25.40;99.90;;;;;;5060332;28;20134;-81
2023/08/17 10:07:20;;;;;;;1.10;0.75;;;25.60;99.90;;;;;;5060639;28;20020;-78
2023/08/17 10:09:56;;;;;;;1.55;1.00;;;25.60;99.90;;;;;;5066089;28;20047;-89
2023/08/17 10:12:27;;;;;;;0.15;0.15;;;25.90;99.90;;;;;;5061828;28;20013;-78
2023/08/17 10:15:19;;;;;;;0.52;0.43;;;25.80;99.90;;;;;;5060356;28;20157;-76
2023/08/17 10:18:24;;;;;;;1.42;1.27;;;25.90;99.90;;;;;;5055902;28;20024;-79
2023/08/17 10:20:59;;;;;;;0.40;0.40;;;26.00;99.90;;;;;;4959397;28;20028;-81
2023/08/17 10:23:27;;;;;;;3.60;3.03;;;25.80;99.90;;;;;;4958776;28;20038;-80
2023/08/17 10:25:53;;;;;;;2.55;1.80;;;25.70;99.90;;;;;;4960645;28;20457;-75
2023/08/17 10:28:21;;;;;;;1.95;1.85;;;25.50;99.90;;;;;;4961758;28;20089;-88
2023/08/17 10:30:48;;;;;;;0.13;0.13;;;25.50;99.90;;;;;;4961609;28;20035;-79
2023/08/17 10:33:15;;;;;;;1.08;0.85;;;25.40;99.90;;;;;;4959962;28;20054;-76
2023/08/17 10:35:44;;;;;;;3.10;2.28;;;25.50;99.90;;;;;;4959418;28;20030;-78
2023/08/17 10:38:10;;;;;;;1.70;1.52;;;;;;;;;;4959136;28;20026;-81
2023/08/17 10:40:38;;;;;;;1.38;1.02;;;25.30;99.90;;;;;;4942235;28;20022;-81
2023/08/17 10:43:05;;;;;;;0.50;0.50;;;25.40;99.90;;;;;;4942580;28;20070;-81
2023/08/17 10:45:34;;;;;;;0.68;0.68;;;25.30;99.90;;;;;;4942475;28;20066;-76
2023/08/17 10:48:29;;;;;;;4.57;1.95;;;25.40;99.90;;;;;;4958498;28;20118;-83
2023/08/17 10:51:01;;;;;;;0.55;0.52;;;25.30;99.90;;;;;;4944417;28;20661;-85
2023/08/17 10:53:27;;;;;;;1.48;1.33;;;25.60;99.90;;;;;;4957785;28;20035;-77
2023/08/17 10:56:06;;;;;;;1.20;1.10;;;25.80;99.90;;;;;;5054650;28;20040;-77
2023/08/17 10:58:32;;;;;;;0.43;0.43;;;25.80;99.90;;;;;;5059189;28;20736;-78
2023/08/17 11:00:58;;;;;;;0.50;0.50;;;25.70;99.90;;;;;;5058997;28;20090;-78
2023/08/17 11:03:24;;;;;;;0.38;0.38;;;25.70;99.90;;;;;;5058316;28;20033;-77
2023/08/17 11:05:53;;;;;;;0.63;0.57;;;25.60;99.90;;;;;;5041180;28;20105;-83
2023/08/17 11:08:51;;;;;;;3.05;1.88;;;25.60;99.90;;;;;;5060263;28;20016;-74
2023/08/17 11:11:20;;;;;;;2.88;1.45;;;25.60;99.90;;;;;;5041976;28;20043;-81
2023/08/17 11:13:47;;;;;;;0.93;0.93;;;25.80;99.90;;;;;;5041675;28;20028;-79
2023/08/17 11:16:16;;;;;;;1.92;1.27;;;25.80;99.90;;;;;;5059984;28;20044;-79
2023/08/17 11:18:44;;;;;;;3.50;1.13;;;26.30;99.90;;;;;;5059262;28;20031;-76
2023/08/17 11:21:10;;;;;;;0.32;0.32;;;25.70;99.90;;;;;;5058569;28;20023;-76
2023/08/17 11:23:37;;;;;;;0.85;0.80;;;25.80;99.90;;;;;;5059583;28;20103;-77
2023/08/17 11:26:04;;;;;;;6.15;1.95;;;25.60;99.90;;;;;;5040486;28;20082;-76
2023/08/17 11:28:36;;;;;;;1.33;0.95;;;25.10;99.90;;;;;;5057841;28;20013;-76
2023/08/17 11:31:03;;;;;;;0.68;0.68;;;26.60;99.90;;;;;;5039556;28;20580;-76
2023/08/17 11:33:31;;;;;;;0.10;0.10;;;26.10;99.90;;;;;;5057604;28;20123;-81
2023/08/17 11:35:58;;;;;;;0.45;0.40;;;26.10;99.90;;;;;;5058104;28;20412;-76
2023/08/17 11:38:25;;;;;;;1.45;1.30;;;25.90;99.90;;;;;;5059231;28;20694;-76
2023/08/17 11:40:52;;;;;;;1.45;1.10;;;26.00;99.90;;;;;;5059588;28;20024;-81
2023/08/17 11:43:20;;;;;;;2.53;2.08;;;26.40;99.90;;;;;;5040174;28;20358;-76
2023/08/17 11:45:46;;;;;;;1.65;1.55;;;26.40;99.90;;;;;;5041118;28;20036;-76
2023/08/17 11:48:12;;;;;;;2.75;1.65;;;26.50;99.90;;;;;;5058719;28;20016;-83
2023/08/17 11:50:41;;;;;;;1.00;0.88;;;26.60;99.90;;;;;;5058460;28;20038;-75
2023/08/17 11:53:07;;;;;;;1.65;1.55;;;26.70;99.90;;;;;;5044707;28;20031;-75
2023/08/17 11:55:33;;;;;;;0.70;0.70;;;26.90;99.90;;;;;;5064187;28;20119;-77
2023/08/17 11:57:59;;;;;;;2.65;1.88;;;27.00;99.90;;;;;;5062063;28;20017;-81
2023/08/17 12:00:25;;;;;;;0.75;0.47;;;26.90;99.90;;;;;;5062204;28;20028;-77
2023/08/17 12:02:54;;;;;;;0.38;0.38;;;27.10;99.90;;;;;;5044937;28;20059;-78
2023/08/17 12:05:26;;;;;;;1.75;1.65;;;24.20;99.90;;;;;;5062693;28;20035;-75
2023/08/17 12:07:54;;;;;;;0.90;0.90;;;26.90;99.90;;;;;;5044550;28;20036;-80
2023/08/17 12:10:22;;;;;;;0.35;0.35;;;26.80;99.90;;;;;;5062581;28;20314;-76
2023/08/17 12:12:49;;;;;;;1.98;1.55;;;26.60;99.90;;;;;;5045983;28;20017;-76
2023/08/17 12:15:18;;;;;;;0.88;0.88;;;26.70;99.90;;;;;;5043540;28;20019;-77
2023/08/17 12:17:47;;;;;;;1.52;1.33;;;27.80;99.90;;;;;;5063535;28;20021;-76
2023/08/17 12:20:18;;;;;;;0.20;0.20;;;26.30;99.90;;;;;;5045094;28;20025;-79
2023/08/17 12:22:45;;;;;;;0.80;0.63;;;26.30;99.90;;;;;;5048305;28;20375;-77
2023/08/17 12:25:12;;;;;;;1.50;1.17;;;26.30;99.90;;;;;;5067035;28;20031;-76
2023/08/17 12:27:39;;;;;;;0.80;0.80;;;26.40;99.90;;;;;;5047512;28;20013;-80
2023/08/17 12:30:13;;;;;;;1.15;1.15;;;26.50;99.90;;;;;;5061426;28;20086;-76
2023/08/17 12:32:39;;;;;;;0.98;0.65;;;26.40;99.90;;;;;;5045852;28;20008;-76
2023/08/17 12:35:05;;;;;;;2.38;1.75;;;26.50;99.90;;;;;;5063321;28;20543;-78
2023/08/17 12:37:31;;;;;;;7.47;2.85;;;26.50;99.90;;;;;;5049661;28;20067;-78
2023/08/17 12:39:58;;;;;;;0.73;0.73;;;26.60;99.90;;;;;;5048657;28;20533;-77
2023/08/17 12:42:24;;;;;;;0.22;0.22;;;26.60;99.90;;;;;;5045415;28;20267;-79
2023/08/17 12:44:52;;;;;;;1.58;1.15;;;26.60;99.90;;;;;;5043652;28;20111;-79
2023/08/17 12:47:18;;;;;;;0.80;0.80;;;26.50;99.90;;;;;;5062234;28;20713;-78
2023/08/17 12:49:45;;;;;;;2.10;1.20;;;26.80;99.90;;;;;;5043898;28;20140;-79
2023/08/17 12:52:11;;;;;;;1.75;1.65;;;27.00;99.90;;;;;;5044393;28;20012;-79
2023/08/17 12:54:37;;;;;;;1.45;1.35;;;24.90;99.90;;;;;;5063862;28;20021;-78
2023/08/17 12:57:04;;;;;;;0.40;0.40;;;27.20;99.90;;;;;;5063941;28;20020;-77
2023/08/17 12:59:30;;;;;;;1.77;1.60;;;;;;;;;;5043610;28;20025;-78